createdAt,value
2022-09-15T00:01:51.912Z,0
2022-09-15T00:06:55.997Z,0
2022-09-15T00:12:00.226Z,0
2022-09-15T00:17:04.425Z,0
2022-09-15T00:22:08.479Z,0
2022-09-15T00:27:12.649Z,0
2022-09-15T00:32:16.816Z,0
2022-09-15T00:37:20.988Z,0
2022-09-15T00:42:25.137Z,0
2022-09-15T00:47:29.320Z,0
2022-09-15T00:52:33.476Z,0
2022-09-15T00:57:37.647Z,0
2022-09-15T01:02:39.948Z,0
2022-09-15T01:07:44.041Z,0
2022-09-15T01:12:46.321Z,0
2022-09-15T01:17:50.465Z,0
2022-09-15T01:22:54.659Z,0
2022-09-15T01:27:58.814Z,0
2022-09-15T01:33:02.983Z,0
2022-09-15T01:38:07.133Z,0
2022-09-15T01:43:11.275Z,0
2022-09-15T01:48:15.454Z,0
2022-09-15T01:53:19.648Z,0
2022-09-15T01:58:23.784Z,0
2022-09-15T02:03:27.933Z,0
2022-09-15T02:08:32.074Z,0
2022-09-15T02:13:36.264Z,0
2022-09-15T02:18:40.436Z,0
2022-09-15T02:23:44.700Z,0
2022-09-15T02:28:48.718Z,0
2022-09-15T02:33:52.916Z,0
2022-09-15T02:38:57.055Z,0
2022-09-15T02:44:01.252Z,0
2022-09-15T02:49:05.370Z,0
2022-09-15T02:54:09.569Z,0
2022-09-15T02:59:11.814Z,0
2022-09-15T03:04:16.000Z,0
2022-09-15T03:09:20.149Z,0
2022-09-15T03:14:24.315Z,0
2022-09-15T03:19:28.451Z,0
2022-09-15T03:24:32.617Z,0
2022-09-15T03:29:36.815Z,0
2022-09-15T03:34:40.925Z,0
2022-09-15T03:39:45.154Z,0
2022-09-15T03:44:49.288Z,0
2022-09-15T03:49:53.478Z,0
2022-09-15T03:54:57.636Z,0
2022-09-15T04:00:01.899Z,0
2022-09-15T04:05:04.029Z,0
2022-09-15T04:10:08.204Z,0
2022-09-15T04:15:12.334Z,0
2022-09-15T04:20:16.484Z,0
2022-09-15T04:25:20.684Z,0
2022-09-15T04:30:24.808Z,0
2022-09-15T04:35:29.008Z,0
2022-09-15T04:40:33.219Z,0
2022-09-15T04:45:35.413Z,0
2022-09-15T04:50:39.611Z,2
2022-09-15T04:55:41.904Z,7
2022-09-15T05:00:46.059Z,25
2022-09-15T05:05:48.305Z,44
2022-09-15T05:10:52.470Z,53
2022-09-15T05:15:58.655Z,39
2022-09-15T05:21:00.751Z,16
2022-09-15T05:26:04.908Z,53
2022-09-15T05:31:09.150Z,115
2022-09-15T05:36:13.241Z,254
2022-09-15T05:41:17.402Z,395
2022-09-15T05:46:21.640Z,656
2022-09-15T05:51:25.730Z,1004
2022-09-15T05:56:29.875Z,986
2022-09-15T06:01:34.079Z,1351
2022-09-15T06:06:38.183Z,1462
2022-09-15T06:11:42.346Z,1633
2022-09-15T06:16:46.593Z,1751
2022-09-15T06:21:50.686Z,2070
2022-09-15T06:26:54.810Z,2030
2022-09-15T06:31:59.047Z,1927
2022-09-15T06:37:03.180Z,1753
2022-09-15T06:42:09.445Z,1942
2022-09-15T06:47:11.481Z,1995
2022-09-15T06:52:13.779Z,2564
2022-09-15T06:57:17.917Z,2682
2022-09-15T07:02:22.285Z,2211
2022-09-15T07:07:26.281Z,2058
2022-09-15T07:12:30.522Z,2623
2022-09-15T07:17:34.550Z,3122
2022-09-15T07:22:38.695Z,3733
2022-09-15T07:27:42.994Z,3719
2022-09-15T07:32:47.007Z,2953
2022-09-15T07:37:51.245Z,2675
2022-09-15T07:42:55.346Z,3573
2022-09-15T07:47:59.528Z,4089
2022-09-15T07:53:03.702Z,5058
2022-09-15T07:58:07.840Z,6146
2022-09-15T08:03:12.000Z,6607
2022-09-15T08:08:16.179Z,6774
2022-09-15T08:13:20.321Z,5452
2022-09-15T08:18:24.508Z,5535
2022-09-15T08:23:28.625Z,7605
2022-09-15T08:28:32.830Z,8729
2022-09-15T08:33:38.905Z,5890
2022-09-15T08:38:39.242Z,8095
2022-09-15T08:43:43.554Z,5435
2022-09-15T08:48:45.687Z,6504
2022-09-15T08:53:49.816Z,6757
2022-09-15T08:58:53.996Z,8717
2022-09-15T09:03:58.235Z,7490
2022-09-15T09:09:02.286Z,5255
2022-09-15T09:14:06.438Z,7738
2022-09-15T09:19:10.606Z,7727
2022-09-15T09:24:14.760Z,6251
2022-09-15T09:29:18.945Z,5340
2022-09-15T09:34:23.229Z,5243
2022-09-15T09:39:27.237Z,6407
2022-09-15T09:44:31.418Z,6527
2022-09-15T09:49:35.569Z,8680
2022-09-15T09:54:39.717Z,7380
2022-09-15T09:59:43.886Z,7510
2022-09-15T10:04:48.044Z,4030
2022-09-15T10:09:52.194Z,7082
2022-09-15T10:14:56.373Z,7232
2022-09-15T10:20:00.537Z,4950
2022-09-15T10:25:04.691Z,8925
2022-09-15T10:30:08.843Z,9244
2022-09-15T10:35:11.094Z,7327
2022-09-15T10:40:15.378Z,5821
2022-09-15T10:45:19.453Z,7318
2022-09-15T10:50:21.713Z,6296
2022-09-15T10:55:48.616Z,4225
2022-09-15T11:00:30.059Z,3219
2022-09-15T11:05:34.152Z,3136
2022-09-15T11:10:38.332Z,1806
2022-09-15T11:15:42.504Z,1345
2022-09-15T11:20:46.706Z,1583
2022-09-15T11:25:50.805Z,2230
2022-09-15T11:30:54.976Z,2125
2022-09-15T11:35:59.157Z,2639
2022-09-15T11:41:03.300Z,5065
2022-09-15T11:46:07.523Z,4718
2022-09-15T11:51:11.603Z,4480
2022-09-15T11:56:15.767Z,5035
2022-09-15T12:01:19.941Z,5580
2022-09-15T12:11:28.299Z,8245
2022-09-15T12:16:32.404Z,8545
2022-09-15T12:21:36.575Z,9408
2022-09-15T12:26:40.772Z,10188
2022-09-15T12:31:46.391Z,9082
2022-09-15T12:36:49.131Z,9997
2022-09-15T12:41:51.312Z,9655
2022-09-15T12:46:55.552Z,9177
2022-09-15T12:51:57.794Z,6617
2022-09-15T12:57:01.930Z,6852
2022-09-15T13:02:06.122Z,7199
2022-09-15T13:07:10.274Z,8706
2022-09-15T13:12:14.394Z,8408
2022-09-15T13:17:18.542Z,7997
2022-09-15T13:22:22.697Z,8444
2022-09-15T13:27:26.925Z,7103
2022-09-15T13:32:31.049Z,6284
2022-09-15T13:38:13.585Z,8918
2022-09-15T13:42:39.339Z,9860
2022-09-15T13:47:43.538Z,8544
2022-09-15T13:52:47.646Z,6625
2022-09-15T14:02:55.957Z,6590
2022-09-15T14:08:01.364Z,8058
2022-09-15T14:13:04.336Z,5500
2022-09-15T14:18:08.654Z,6270
2022-09-15T14:23:12.621Z,6640
2022-09-15T14:28:16.797Z,5523
2022-09-15T14:33:20.956Z,4850
2022-09-15T14:38:23.295Z,5725
2022-09-15T14:43:27.364Z,5594
2022-09-15T14:48:31.526Z,5740
2022-09-15T14:53:35.690Z,4746
2022-09-15T14:58:39.857Z,4642
2022-09-15T15:03:44.039Z,4867
2022-09-15T15:08:48.185Z,5736
2022-09-15T15:13:52.626Z,5831
2022-09-15T15:18:56.463Z,5375
2022-09-15T15:24:00.638Z,4656
2022-09-15T15:29:04.818Z,5660
2022-09-15T15:34:08.990Z,4651
2022-09-15T15:39:13.130Z,3326
2022-09-15T15:44:17.323Z,3981
2022-09-15T15:49:21.457Z,4448
2022-09-15T15:54:25.604Z,10964
2022-09-15T15:59:29.780Z,17208
2022-09-15T16:04:33.933Z,4020
2022-09-15T16:09:38.096Z,8566
2022-09-15T16:14:42.223Z,693
2022-09-15T16:19:46.397Z,287
2022-09-15T16:24:48.717Z,181
2022-09-15T16:29:52.855Z,124
2022-09-15T16:34:55.118Z,175
2022-09-15T16:39:59.358Z,428
2022-09-15T16:45:03.437Z,1619
2022-09-15T16:50:07.580Z,1967
2022-09-15T16:55:11.737Z,1229
2022-09-15T17:00:15.862Z,1670
2022-09-15T17:05:20.051Z,1380
2022-09-15T17:10:24.231Z,1289
2022-09-15T17:15:28.370Z,1015
2022-09-15T17:20:37.037Z,773
2022-09-15T17:25:36.684Z,625
2022-09-15T17:30:40.878Z,478
2022-09-15T17:35:44.990Z,332
2022-09-15T17:40:49.161Z,299
2022-09-15T17:45:53.331Z,183
2022-09-15T17:50:57.538Z,110
2022-09-15T17:56:01.656Z,67
2022-09-15T18:01:05.830Z,29
2022-09-15T18:06:10.001Z,14
2022-09-15T18:11:14.142Z,5
2022-09-15T18:16:18.391Z,2
2022-09-15T18:21:20.545Z,0
2022-09-15T18:26:26.629Z,0
2022-09-15T18:31:28.927Z,0
2022-09-15T18:36:35.029Z,0
2022-09-15T18:41:37.796Z,0
2022-09-15T18:46:41.386Z,0
2022-09-15T18:51:51.724Z,0
2022-09-15T18:56:49.677Z,0
2022-09-15T19:01:54.026Z,0
2022-09-15T19:06:58.027Z,0
2022-09-15T19:12:02.148Z,0
2022-09-15T19:17:06.334Z,0
2022-09-15T19:22:10.486Z,0
2022-09-15T19:27:14.659Z,0
2022-09-15T19:32:18.800Z,0
2022-09-15T19:37:22.952Z,0
2022-09-15T19:42:27.123Z,0
2022-09-15T19:47:31.279Z,0
2022-09-15T19:52:35.548Z,0
2022-09-15T19:57:39.609Z,0
2022-09-15T20:02:43.845Z,0
2022-09-15T20:07:46.041Z,0
2022-09-15T20:12:50.199Z,0
2022-09-15T20:17:54.360Z,0
2022-09-15T20:22:58.515Z,0
2022-09-15T20:28:02.645Z,0
2022-09-15T20:33:06.853Z,0
2022-09-15T20:38:11.014Z,0
2022-09-15T20:43:15.127Z,0
2022-09-15T20:48:19.359Z,0
2022-09-15T20:53:23.496Z,0
2022-09-15T20:58:27.642Z,0
2022-09-15T21:03:29.889Z,0
2022-09-15T21:08:34.067Z,0
2022-09-15T21:13:38.246Z,0
2022-09-15T21:18:42.401Z,0
2022-09-15T21:23:46.594Z,0
2022-09-15T21:28:50.697Z,0
2022-09-15T21:33:54.891Z,0
2022-09-15T21:38:59.006Z,0
2022-09-15T21:44:03.209Z,0
2022-09-15T21:49:07.321Z,0
2022-09-15T21:54:11.477Z,0
2022-09-15T21:59:15.633Z,0
2022-09-15T22:04:19.819Z,0
2022-09-15T22:09:23.998Z,0
2022-09-15T22:14:28.136Z,0
2022-09-15T22:19:32.314Z,0
2022-09-15T22:24:36.431Z,0
2022-09-15T22:29:40.599Z,0
2022-09-15T22:34:44.831Z,0
2022-09-15T22:39:58.978Z,0
2022-09-15T22:44:53.145Z,0
2022-09-15T22:49:57.303Z,0
2022-09-15T22:55:01.470Z,0
2022-09-15T23:00:05.606Z,0
2022-09-15T23:05:09.771Z,0
2022-09-15T23:10:13.932Z,0
2022-09-15T23:15:18.066Z,0
2022-09-15T23:20:22.454Z,0
2022-09-15T23:25:26.425Z,0
2022-09-15T23:30:30.567Z,0
2022-09-15T23:35:34.729Z,0
2022-09-15T23:40:38.867Z,0
2022-09-15T23:45:43.040Z,0
2022-09-15T23:50:47.184Z,0
2022-09-15T23:55:51.357Z,0
